createdAt,value
2018-05-21T00:00:26.354Z,19.85
2018-05-21T00:00:57.673Z,19.83
2018-05-21T00:01:29.034Z,19.84
2018-05-21T00:02:00.315Z,19.82
2018-05-21T00:02:31.632Z,19.80
2018-05-21T00:03:03.819Z,19.79
2018-05-21T00:03:35.178Z,19.76
2018-05-21T00:04:06.623Z,19.73
2018-05-21T00:04:39.695Z,19.68
2018-05-21T00:05:13.890Z,19.69
2018-05-21T00:05:45.532Z,19.68
2018-05-21T00:06:16.884Z,19.69
2018-05-21T00:06:48.339Z,19.69
2018-05-21T00:07:19.603Z,19.70
2018-05-21T00:07:50.980Z,19.69
2018-05-21T00:08:22.330Z,19.68
2018-05-21T00:08:54.412Z,19.67
2018-05-21T00:09:25.702Z,19.68
2018-05-21T00:09:57.043Z,19.69
2018-05-21T00:10:28.344Z,19.73
2018-05-21T00:10:59.593Z,19.71
2018-05-21T00:11:30.805Z,19.72
2018-05-21T00:12:02.019Z,19.69
2018-05-21T00:12:33.236Z,19.69
2018-05-21T00:13:04.455Z,19.70
2018-05-21T00:13:39.576Z,19.73
2018-05-21T00:14:11.831Z,19.77
2018-05-21T00:14:43.135Z,19.77
2018-05-21T00:15:14.604Z,19.75
2018-05-21T00:15:46.098Z,19.70
2018-05-21T00:16:18.446Z,19.68
2018-05-21T00:16:49.795Z,19.66
2018-05-21T00:17:21.196Z,19.63
2018-05-21T00:17:53.374Z,19.61
2018-05-21T00:18:24.619Z,19.62
2018-05-21T00:18:56.160Z,19.62
2018-05-21T00:19:27.491Z,19.57
2018-05-21T00:20:00.389Z,19.58
2018-05-21T00:20:32.426Z,19.58
2018-05-21T00:21:04.364Z,19.60
2018-05-21T00:21:35.707Z,19.62
2018-05-21T00:22:06.973Z,19.63
2018-05-21T00:22:38.264Z,19.69
2018-05-21T00:23:09.464Z,19.24
2018-05-21T00:23:40.724Z,19.72
2018-05-21T00:24:11.933Z,19.74
2018-05-21T00:24:43.141Z,19.76
2018-05-21T00:25:14.349Z,19.76
2018-05-21T00:25:45.560Z,19.78
2018-05-21T00:26:16.802Z,19.80
2018-05-21T00:26:48.015Z,19.77
2018-05-21T00:27:19.253Z,19.77
2018-05-21T00:27:50.457Z,19.73
2018-05-21T00:28:21.716Z,19.53
2018-05-21T00:28:52.936Z,19.70
2018-05-21T00:29:24.145Z,19.66
2018-05-21T00:29:55.403Z,19.67
2018-05-21T00:30:26.612Z,19.64
2018-05-21T00:30:57.833Z,19.64
2018-05-21T00:31:29.048Z,19.60
2018-05-21T00:32:00.261Z,19.61
2018-05-21T00:32:31.518Z,19.60
2018-05-21T00:33:02.734Z,19.57
2018-05-21T00:33:33.945Z,19.56
2018-05-21T00:34:05.187Z,19.55
2018-05-21T00:34:36.410Z,19.52
2018-05-21T00:35:07.667Z,19.51
2018-05-21T00:35:38.896Z,19.52
2018-05-21T00:36:10.117Z,19.44
2018-05-21T00:36:41.328Z,19.44
2018-05-21T00:37:12.533Z,19.45
2018-05-21T00:37:43.750Z,19.47
2018-05-21T00:38:14.944Z,19.45
2018-05-21T00:38:46.149Z,19.43
2018-05-21T00:39:17.358Z,19.41
2018-05-21T00:39:48.565Z,19.37
2018-05-21T00:40:19.825Z,19.35
2018-05-21T00:40:51.037Z,19.31
2018-05-21T00:41:22.250Z,19.29
2018-05-21T00:41:53.442Z,19.28
2018-05-21T00:42:24.664Z,19.31
2018-05-21T00:42:55.874Z,19.32
2018-05-21T00:43:27.081Z,19.29
2018-05-21T00:43:58.284Z,19.31
2018-05-21T00:44:29.494Z,19.31
2018-05-21T00:45:00.724Z,19.31
2018-05-21T00:45:32.004Z,19.32
2018-05-21T00:46:03.221Z,19.32
2018-05-21T00:46:34.421Z,19.33
2018-05-21T00:47:05.647Z,19.36
2018-05-21T00:47:36.845Z,19.38
2018-05-21T00:48:08.061Z,19.40
2018-05-21T00:48:39.272Z,19.46
2018-05-21T00:49:10.486Z,19.47
2018-05-21T00:49:41.679Z,19.50
2018-05-21T00:50:12.889Z,19.52
2018-05-21T00:50:44.175Z,19.54
2018-05-21T00:51:15.395Z,19.53
2018-05-21T00:51:46.611Z,19.48
2018-05-21T00:52:17.818Z,19.47
2018-05-21T00:52:49.033Z,19.45
2018-05-21T00:53:20.236Z,19.45
2018-05-21T00:53:51.426Z,19.44
2018-05-21T00:54:22.632Z,19.41
2018-05-21T00:54:53.827Z,19.38
2018-05-21T00:55:25.055Z,19.35
2018-05-21T00:55:56.395Z,19.32
2018-05-21T00:56:27.606Z,19.32
2018-05-21T00:56:58.818Z,19.29
2018-05-21T00:57:30.031Z,19.30
2018-05-21T00:58:01.245Z,19.32
2018-05-21T00:58:32.461Z,19.30
2018-05-21T00:59:03.676Z,19.32
2018-05-21T00:59:34.894Z,19.33
2018-05-21T01:00:06.093Z,19.35
2018-05-21T01:00:37.301Z,19.36
2018-05-21T01:01:08.526Z,19.40
2018-05-21T01:01:39.740Z,19.41
2018-05-21T01:02:10.957Z,19.44
2018-05-21T01:02:42.164Z,19.46
2018-05-21T01:03:13.394Z,19.50
2018-05-21T01:03:44.597Z,19.53
2018-05-21T01:04:15.805Z,19.53
2018-05-21T01:04:47.035Z,19.55
2018-05-21T01:05:18.253Z,19.51
2018-05-21T01:05:49.497Z,19.48
2018-05-21T01:06:20.709Z,19.45
2018-05-21T01:06:51.919Z,19.41
2018-05-21T01:07:23.141Z,19.36
2018-05-21T01:07:54.352Z,19.29
2018-05-21T01:08:25.567Z,19.28
2018-05-21T01:08:56.834Z,19.25
2018-05-21T01:09:28.045Z,19.20
2018-05-21T01:09:59.253Z,19.21
2018-05-21T01:10:30.473Z,19.21
2018-05-21T01:11:01.680Z,19.17
2018-05-21T01:11:32.894Z,19.20
2018-05-21T01:12:04.121Z,19.18
2018-05-21T01:12:35.376Z,19.17
2018-05-21T01:13:06.603Z,19.14
2018-05-21T01:13:37.812Z,19.14
2018-05-21T01:14:09.040Z,19.13
2018-05-21T01:14:40.266Z,19.15
2018-05-21T01:15:11.477Z,19.15
2018-05-21T01:15:42.737Z,19.14
2018-05-21T01:16:13.938Z,19.16
2018-05-21T01:16:45.149Z,19.17
2018-05-21T01:17:16.411Z,19.20
2018-05-21T01:17:47.619Z,19.22
2018-05-21T01:18:18.969Z,19.21
2018-05-21T01:18:50.187Z,19.23
2018-05-21T01:19:21.409Z,19.24
2018-05-21T01:19:52.618Z,19.27
2018-05-21T01:20:23.835Z,19.29
2018-05-21T01:20:55.051Z,19.31
2018-05-21T01:21:26.261Z,19.32
2018-05-21T01:21:57.473Z,19.33
2018-05-21T01:22:28.693Z,19.34
2018-05-21T01:22:59.882Z,19.36
2018-05-21T01:23:31.116Z,19.36
2018-05-21T01:24:02.332Z,19.33
2018-05-21T01:24:33.543Z,19.35
2018-05-21T01:25:04.757Z,19.34
2018-05-21T01:25:35.974Z,19.34
2018-05-21T01:26:07.189Z,19.34
2018-05-21T01:26:38.396Z,19.31
2018-05-21T01:27:09.614Z,19.30
2018-05-21T01:27:40.825Z,19.30
2018-05-21T01:28:12.029Z,19.33
2018-05-21T01:28:43.272Z,19.32
2018-05-21T01:29:14.495Z,19.33
2018-05-21T01:29:45.719Z,19.28
2018-05-21T01:30:16.936Z,19.30
2018-05-21T01:30:48.150Z,19.32
2018-05-21T01:31:19.361Z,19.35
2018-05-21T01:31:50.577Z,19.37
2018-05-21T01:32:21.786Z,19.39
2018-05-21T01:32:53.049Z,19.40
2018-05-21T01:33:24.289Z,19.41
2018-05-21T01:33:55.555Z,19.44
2018-05-21T01:34:26.770Z,19.46
2018-05-21T01:34:58.170Z,19.48
2018-05-21T01:35:29.473Z,19.50
2018-05-21T01:36:00.785Z,19.50
2018-05-21T01:36:32.163Z,19.48
2018-05-21T01:37:03.471Z,19.44
2018-05-21T01:37:34.750Z,19.42
2018-05-21T01:38:06.240Z,19.40
2018-05-21T01:38:37.538Z,19.40
2018-05-21T01:39:09.031Z,19.35
2018-05-21T01:39:40.346Z,19.34
2018-05-21T01:40:11.649Z,19.34
2018-05-21T01:40:43.112Z,19.33
2018-05-21T01:41:14.435Z,19.33
2018-05-21T01:41:45.740Z,19.33
2018-05-21T01:42:16.985Z,19.32
2018-05-21T01:42:48.233Z,19.25
2018-05-21T01:43:19.446Z,19.26
2018-05-21T01:43:50.658Z,19.25
2018-05-21T01:44:21.886Z,19.24
2018-05-21T01:44:53.106Z,19.23
2018-05-21T01:45:24.319Z,19.24
2018-05-21T01:45:55.535Z,19.26
2018-05-21T01:46:26.781Z,19.21
2018-05-21T01:46:57.994Z,19.17
2018-05-21T01:47:29.249Z,19.17
2018-05-21T01:48:00.503Z,19.16
2018-05-21T01:48:31.708Z,19.17
2018-05-21T01:49:02.912Z,19.22
2018-05-21T01:49:34.124Z,19.25
2018-05-21T01:50:05.356Z,19.26
2018-05-21T01:50:36.560Z,19.26
2018-05-21T01:51:07.810Z,19.23
2018-05-21T01:51:39.039Z,19.22
2018-05-21T01:52:10.361Z,19.25
2018-05-21T01:52:41.570Z,19.27
2018-05-21T01:53:12.777Z,19.29
2018-05-21T01:53:43.993Z,19.32
2018-05-21T01:54:15.205Z,19.34
2018-05-21T01:54:46.450Z,19.35
2018-05-21T01:55:17.657Z,19.36
2018-05-21T01:55:48.888Z,19.33
2018-05-21T01:56:20.505Z,19.33
2018-05-21T01:56:51.717Z,19.31
2018-05-21T01:57:22.934Z,19.29
2018-05-21T01:57:54.167Z,19.29
2018-05-21T01:58:25.376Z,19.28
2018-05-21T01:58:56.589Z,19.27
2018-05-21T01:59:27.841Z,19.25
2018-05-21T01:59:59.043Z,19.17
2018-05-21T02:00:30.271Z,19.18
2018-05-21T02:01:01.544Z,19.20
2018-05-21T02:01:32.781Z,19.21
2018-05-21T02:02:04.003Z,19.21
2018-05-21T02:02:35.217Z,19.23
2018-05-21T02:03:07.337Z,19.26
2018-05-21T02:03:38.549Z,19.25
2018-05-21T02:04:09.775Z,19.25
2018-05-21T02:04:40.999Z,19.21
2018-05-21T02:05:12.225Z,19.17
2018-05-21T02:05:43.436Z,19.16
2018-05-21T02:06:14.709Z,19.16
2018-05-21T02:06:45.921Z,19.15
2018-05-21T02:07:17.133Z,19.13
2018-05-21T02:07:48.363Z,19.11
2018-05-21T02:08:19.616Z,19.11
2018-05-21T02:08:50.824Z,19.13
2018-05-21T02:09:22.033Z,19.13
2018-05-21T02:09:53.285Z,19.15
2018-05-21T02:10:24.510Z,19.14
2018-05-21T02:10:55.762Z,19.09
2018-05-21T02:11:27.013Z,19.09
2018-05-21T02:11:58.227Z,19.09
2018-05-21T02:12:29.434Z,19.06
2018-05-21T02:13:00.654Z,19.05
2018-05-21T02:13:31.870Z,19.03
2018-05-21T02:14:03.081Z,19.01
2018-05-21T02:14:34.299Z,19.01
2018-05-21T02:15:05.517Z,19.00
2018-05-21T02:15:36.725Z,18.97
2018-05-21T02:16:07.977Z,18.96
2018-05-21T02:16:39.199Z,18.95
2018-05-21T02:17:10.425Z,18.97
2018-05-21T02:17:41.678Z,18.97
2018-05-21T02:18:12.889Z,18.98
2018-05-21T02:18:44.115Z,18.91
2018-05-21T02:19:15.330Z,18.94
2018-05-21T02:19:46.547Z,18.94
2018-05-21T02:20:17.772Z,18.95
2018-05-21T02:20:48.983Z,18.97
2018-05-21T02:21:20.197Z,18.98
2018-05-21T02:21:51.412Z,18.99
2018-05-21T02:22:22.621Z,19.01
2018-05-21T02:22:53.967Z,19.03
2018-05-21T02:23:25.132Z,19.04
2018-05-21T02:23:56.343Z,19.05
2018-05-21T02:24:27.585Z,19.07
2018-05-21T02:24:58.792Z,19.09
2018-05-21T02:25:30.005Z,19.07
2018-05-21T02:26:01.219Z,19.05
2018-05-21T02:26:32.426Z,19.03
2018-05-21T02:27:03.751Z,19.02
2018-05-21T02:27:34.917Z,18.99
2018-05-21T02:28:06.175Z,18.98
2018-05-21T02:28:37.404Z,19.02
2018-05-21T02:29:08.618Z,19.03
2018-05-21T02:29:39.833Z,19.06
2018-05-21T02:30:11.053Z,19.07
2018-05-21T02:30:42.276Z,19.09
2018-05-21T02:31:13.493Z,19.12
2018-05-21T02:31:44.701Z,19.15
2018-05-21T02:32:15.958Z,19.16
2018-05-21T02:32:47.192Z,19.14
2018-05-21T02:33:18.421Z,19.15
2018-05-21T02:33:49.676Z,19.15
2018-05-21T02:34:20.935Z,19.15
2018-05-21T02:34:52.145Z,19.15
2018-05-21T02:35:23.348Z,19.11
2018-05-21T02:35:54.562Z,19.13
2018-05-21T02:36:25.770Z,19.17
2018-05-21T02:36:56.980Z,19.21
2018-05-21T02:37:28.191Z,19.22
2018-05-21T02:37:59.406Z,19.25
2018-05-21T02:38:30.637Z,19.29
2018-05-21T02:39:01.856Z,19.31
2018-05-21T02:39:33.121Z,19.32
2018-05-21T02:40:04.354Z,19.33
2018-05-21T02:40:35.556Z,19.34
2018-05-21T02:41:06.776Z,19.34
2018-05-21T02:41:37.992Z,19.33
2018-05-21T02:42:09.243Z,19.35
2018-05-21T02:42:40.478Z,19.36
2018-05-21T02:43:11.730Z,19.35
2018-05-21T02:43:42.948Z,19.33
2018-05-21T02:44:14.154Z,19.33
2018-05-21T02:44:45.367Z,19.33
2018-05-21T02:45:16.618Z,19.30
2018-05-21T02:45:47.845Z,19.25
2018-05-21T02:46:19.077Z,19.21
2018-05-21T02:46:50.287Z,19.15
2018-05-21T02:47:21.500Z,19.09
2018-05-21T02:47:52.715Z,19.08
2018-05-21T02:48:23.933Z,19.05
2018-05-21T02:48:55.147Z,19.05
2018-05-21T02:49:26.374Z,19.02
2018-05-21T02:49:57.623Z,19.01
2018-05-21T02:50:28.848Z,18.97
2018-05-21T02:51:00.068Z,18.95
2018-05-21T02:51:31.278Z,18.94
2018-05-21T02:52:02.499Z,18.94
2018-05-21T02:52:33.717Z,18.95
2018-05-21T02:53:04.922Z,18.99
2018-05-21T02:53:36.129Z,19.01
2018-05-21T02:54:07.356Z,19.03
2018-05-21T02:54:38.611Z,19.06
2018-05-21T02:55:09.822Z,19.08
2018-05-21T02:55:41.039Z,19.10
2018-05-21T02:56:12.256Z,19.10
2018-05-21T02:56:43.472Z,19.08
2018-05-21T02:57:14.685Z,19.08
2018-05-21T02:57:45.918Z,19.09
2018-05-21T02:58:17.124Z,19.08
2018-05-21T02:58:48.345Z,19.08
2018-05-21T02:59:19.561Z,19.09
2018-05-21T02:59:50.830Z,19.09
2018-05-21T03:00:22.045Z,19.11
2018-05-21T03:00:53.260Z,19.14
2018-05-21T03:01:24.469Z,19.17
2018-05-21T03:01:55.676Z,19.17
2018-05-21T03:02:26.894Z,19.16
2018-05-21T03:02:58.120Z,19.17
2018-05-21T03:03:29.352Z,19.17
2018-05-21T03:04:00.884Z,19.14
2018-05-21T03:04:32.222Z,19.10
2018-05-21T03:05:03.697Z,19.04
2018-05-21T03:05:35.964Z,18.99
2018-05-21T03:06:07.271Z,18.99
2018-05-21T03:06:38.560Z,18.99
2018-05-21T03:07:09.773Z,19.01
2018-05-21T03:07:41.525Z,19.06
2018-05-21T03:08:13.386Z,19.10
2018-05-21T03:08:45.312Z,19.14
2018-05-21T03:09:17.510Z,19.18
2018-05-21T03:09:49.934Z,19.26
2018-05-21T03:10:21.405Z,19.32
2018-05-21T03:10:52.742Z,19.36
2018-05-21T03:11:25.007Z,19.36
2018-05-21T03:11:57.242Z,19.37
2018-05-21T03:12:31.450Z,19.40
2018-05-21T03:13:02.715Z,19.47
2018-05-21T03:13:33.987Z,19.53
2018-05-21T03:14:05.637Z,19.59
2018-05-21T03:14:37.919Z,19.67
2018-05-21T03:15:10.803Z,19.71
2018-05-21T03:15:42.126Z,19.76
2018-05-21T03:16:13.736Z,19.78
2018-05-21T03:16:45.093Z,19.75
2018-05-21T03:17:16.760Z,19.71
2018-05-21T03:17:48.107Z,19.68
2018-05-21T03:18:19.539Z,19.65
2018-05-21T03:18:50.837Z,19.60
2018-05-21T03:19:22.168Z,19.53
2018-05-21T03:19:53.572Z,19.47
2018-05-21T03:20:25.073Z,19.44
2018-05-21T03:20:57.264Z,19.44
2018-05-21T03:21:29.505Z,19.45
2018-05-21T03:22:00.936Z,19.50
2018-05-21T03:22:32.357Z,19.58
2018-05-21T03:23:03.717Z,19.66
2018-05-21T03:23:35.103Z,19.76
2018-05-21T03:24:07.888Z,19.83
2018-05-21T03:24:39.210Z,19.91
2018-05-21T03:25:10.842Z,19.98
2018-05-21T03:25:42.279Z,20.09
2018-05-21T03:26:13.587Z,20.20
2018-05-21T03:26:44.892Z,20.30
2018-05-21T03:27:16.957Z,20.38
2018-05-21T03:27:50.725Z,20.49
2018-05-21T03:28:22.944Z,20.55
2018-05-21T03:28:54.176Z,20.60
2018-05-21T03:29:25.403Z,20.58
2018-05-21T03:29:56.621Z,20.58
2018-05-21T03:30:27.874Z,20.58
2018-05-21T03:30:59.093Z,20.55
2018-05-21T03:31:30.310Z,20.55
2018-05-21T03:32:01.523Z,20.54
2018-05-21T03:32:32.732Z,20.49
2018-05-21T03:33:03.955Z,20.43
2018-05-21T03:33:35.174Z,20.40
2018-05-21T03:34:06.393Z,20.30
2018-05-21T03:34:37.615Z,20.25
2018-05-21T03:35:08.829Z,20.23
2018-05-21T03:35:40.090Z,20.17
2018-05-21T03:36:11.305Z,20.15
2018-05-21T03:36:42.528Z,20.12
2018-05-21T03:37:13.742Z,20.10
2018-05-21T03:37:44.967Z,20.08
2018-05-21T03:38:16.182Z,20.04
2018-05-21T03:38:47.410Z,20.03
2018-05-21T03:39:18.671Z,20.05
2018-05-21T03:39:49.888Z,20.05
2018-05-21T03:40:21.148Z,20.04
2018-05-21T03:40:52.370Z,20.00
2018-05-21T03:41:23.626Z,19.98
2018-05-21T03:41:54.848Z,20.01
2018-05-21T03:42:26.062Z,20.01
2018-05-21T03:42:57.291Z,19.97
2018-05-21T03:43:28.538Z,19.92
2018-05-21T03:43:59.753Z,19.89
2018-05-21T03:44:30.964Z,19.83
2018-05-21T03:45:02.176Z,19.80
2018-05-21T03:45:33.388Z,19.76
2018-05-21T03:46:04.649Z,19.72
2018-05-21T03:46:35.870Z,19.71
2018-05-21T03:47:07.080Z,19.71
2018-05-21T03:47:38.288Z,19.71
2018-05-21T03:48:09.504Z,19.71
2018-05-21T03:48:40.721Z,19.74
2018-05-21T03:49:11.933Z,19.77
2018-05-21T03:49:43.159Z,19.80
2018-05-21T03:50:14.386Z,19.84
2018-05-21T03:50:45.619Z,19.86
2018-05-21T03:51:16.893Z,19.87
2018-05-21T03:51:48.126Z,19.86
2018-05-21T03:52:19.353Z,19.86
2018-05-21T03:52:50.580Z,19.86
2018-05-21T03:53:21.784Z,19.83
2018-05-21T03:53:52.997Z,19.82
2018-05-21T03:54:24.252Z,19.81
2018-05-21T03:54:55.474Z,19.80
2018-05-21T03:55:26.690Z,19.79
2018-05-21T03:55:57.904Z,19.76
2018-05-21T03:56:29.117Z,19.76
2018-05-21T03:57:00.372Z,19.78
2018-05-21T03:57:31.591Z,19.75
2018-05-21T03:58:02.810Z,19.76
2018-05-21T03:58:34.011Z,19.72
2018-05-21T03:59:05.263Z,19.74
2018-05-21T03:59:36.478Z,19.79
2018-05-21T04:00:07.691Z,19.81
2018-05-21T04:00:38.923Z,19.81
2018-05-21T04:01:10.144Z,19.77
2018-05-21T04:01:41.365Z,19.74
2018-05-21T04:02:12.582Z,19.73
2018-05-21T04:02:43.801Z,19.70
2018-05-21T04:03:15.036Z,19.67
2018-05-21T04:03:46.269Z,19.65
2018-05-21T04:04:17.527Z,19.63
2018-05-21T04:04:48.742Z,19.64
2018-05-21T04:05:19.952Z,19.62
2018-05-21T04:05:51.157Z,19.63
2018-05-21T04:06:22.408Z,19.65
2018-05-21T04:06:53.624Z,19.65
2018-05-21T04:07:24.834Z,19.59
2018-05-21T04:07:56.051Z,19.66
2018-05-21T04:08:27.353Z,19.63
2018-05-21T04:08:58.532Z,19.60
2018-05-21T04:09:29.786Z,19.56
2018-05-21T04:10:01.010Z,19.55
2018-05-21T04:10:32.223Z,19.53
2018-05-21T04:11:03.433Z,19.51
2018-05-21T04:11:34.640Z,19.49
2018-05-21T04:12:05.850Z,19.44
2018-05-21T04:12:37.073Z,19.41
2018-05-21T04:13:08.283Z,19.38
2018-05-21T04:13:39.492Z,19.34
2018-05-21T04:14:10.710Z,19.31
2018-05-21T04:14:41.957Z,19.29
2018-05-21T04:15:13.169Z,19.24
2018-05-21T04:15:44.382Z,19.19
2018-05-21T04:16:15.676Z,19.15
2018-05-21T04:16:46.994Z,19.07
2018-05-21T04:17:22.477Z,19.02
2018-05-21T04:17:53.800Z,18.99
2018-05-21T04:18:25.244Z,18.96
2018-05-21T04:18:57.077Z,18.96
2018-05-21T04:19:28.419Z,18.96
2018-05-21T04:19:59.669Z,18.96
2018-05-21T04:20:30.908Z,19.00
2018-05-21T04:21:02.123Z,19.03
2018-05-21T04:21:33.364Z,19.08
2018-05-21T04:22:04.658Z,19.12
2018-05-21T04:22:36.018Z,19.15
2018-05-21T04:23:07.312Z,19.10
2018-05-21T04:23:38.718Z,19.07
2018-05-21T04:24:10.035Z,19.08
2018-05-21T04:24:41.633Z,19.15
2018-05-21T04:25:13.024Z,19.16
2018-05-21T04:25:44.330Z,19.19
2018-05-21T04:26:15.653Z,19.20
2018-05-21T04:26:46.993Z,19.22
2018-05-21T04:27:18.551Z,19.22
2018-05-21T04:27:49.835Z,19.24
2018-05-21T04:28:21.128Z,19.23
2018-05-21T04:28:52.537Z,19.23
2018-05-21T04:29:23.927Z,19.24
2018-05-21T04:29:57.078Z,19.24
2018-05-21T04:30:28.318Z,19.24
2018-05-21T04:30:59.531Z,19.23
2018-05-21T04:31:30.748Z,19.18
2018-05-21T04:32:01.957Z,19.17
2018-05-21T04:32:33.172Z,19.16
2018-05-21T04:33:04.401Z,19.18
2018-05-21T04:33:35.625Z,19.20
2018-05-21T04:34:06.830Z,19.20
2018-05-21T04:34:38.042Z,19.20
2018-05-21T04:35:09.285Z,19.23
2018-05-21T04:35:40.506Z,19.22
2018-05-21T04:36:11.728Z,19.20
2018-05-21T04:36:42.955Z,19.24
2018-05-21T04:37:14.175Z,19.24
2018-05-21T04:37:45.387Z,19.23
2018-05-21T04:38:16.610Z,19.23
2018-05-21T04:38:47.824Z,19.21
2018-05-21T04:39:19.037Z,19.22
2018-05-21T04:39:50.257Z,19.22
2018-05-21T04:40:21.512Z,19.25
2018-05-21T04:40:52.726Z,19.25
2018-05-21T04:41:23.942Z,19.28
2018-05-21T04:41:55.211Z,19.30
2018-05-21T04:42:26.435Z,19.30
2018-05-21T04:42:57.661Z,19.32
2018-05-21T04:43:30.095Z,19.37
2018-05-21T04:44:01.367Z,19.41
2018-05-21T04:44:32.716Z,19.46
2018-05-21T04:45:04.404Z,19.48
2018-05-21T04:45:35.803Z,19.49
2018-05-21T04:46:43.413Z,19.53
2018-05-21T04:47:14.784Z,19.54
2018-05-21T04:47:46.141Z,19.56
2018-05-21T04:48:17.458Z,19.61
2018-05-21T04:48:49.579Z,19.65
2018-05-21T04:49:20.937Z,19.70
2018-05-21T04:49:52.318Z,19.74
2018-05-21T04:50:23.603Z,19.75
2018-05-21T04:50:54.936Z,19.76
2018-05-21T04:51:26.194Z,19.80
2018-05-21T04:51:57.862Z,19.84
2018-05-21T04:52:29.490Z,19.88
2018-05-21T04:53:00.805Z,19.89
2018-05-21T04:53:32.785Z,19.90
2018-05-21T04:54:04.086Z,19.89
2018-05-21T04:54:35.346Z,19.91
2018-05-21T04:55:06.550Z,19.91
2018-05-21T04:55:37.769Z,19.91
2018-05-21T04:56:08.985Z,19.92
2018-05-21T04:56:40.197Z,19.93
2018-05-21T04:57:11.429Z,19.96
2018-05-21T04:57:42.637Z,19.99
2018-05-21T04:58:13.844Z,20.01
2018-05-21T04:58:45.066Z,20.04
2018-05-21T04:59:16.282Z,20.04
2018-05-21T04:59:47.541Z,20.06
2018-05-21T05:00:18.778Z,20.08
2018-05-21T05:00:50.008Z,20.11
2018-05-21T05:01:21.270Z,20.18
2018-05-21T05:01:52.488Z,20.23
2018-05-21T05:02:23.719Z,20.30
2018-05-21T05:02:54.939Z,20.36
2018-05-21T05:03:26.165Z,20.41
2018-05-21T05:03:57.385Z,20.46
2018-05-21T05:04:28.604Z,20.52
2018-05-21T05:04:59.808Z,20.54
2018-05-21T05:05:31.029Z,20.58
2018-05-21T05:06:02.256Z,20.59
2018-05-21T05:06:33.533Z,20.61
2018-05-21T05:07:04.767Z,20.59
2018-05-21T05:07:36.021Z,20.57
2018-05-21T05:08:07.238Z,20.58
2018-05-21T05:08:38.461Z,20.61
2018-05-21T05:09:09.687Z,20.60
2018-05-21T05:09:40.900Z,20.62
2018-05-21T05:10:12.121Z,20.65
2018-05-21T05:10:43.364Z,20.71
2018-05-21T05:11:14.592Z,20.74
2018-05-21T05:11:45.853Z,20.77
2018-05-21T05:12:17.121Z,20.80
2018-05-21T05:12:48.340Z,20.86
2018-05-21T05:13:19.562Z,20.83
2018-05-21T05:13:50.785Z,20.68
2018-05-21T05:14:22.059Z,20.62
2018-05-21T05:14:53.258Z,20.62
2018-05-21T05:15:24.480Z,20.63
2018-05-21T05:15:55.702Z,20.67
2018-05-21T05:16:26.925Z,20.73
2018-05-21T05:16:58.137Z,20.79
2018-05-21T05:17:29.392Z,20.85
2018-05-21T05:18:00.622Z,20.92
2018-05-21T05:18:31.837Z,20.95
2018-05-21T05:19:03.061Z,21.03
2018-05-21T05:19:34.290Z,21.11
2018-05-21T05:20:05.574Z,21.14
2018-05-21T05:20:36.809Z,21.13
2018-05-21T05:21:08.061Z,21.13
2018-05-21T05:21:39.278Z,21.09
2018-05-21T05:22:10.498Z,21.06
2018-05-21T05:22:41.720Z,21.06
2018-05-21T05:23:14.353Z,21.09
2018-05-21T05:23:45.604Z,21.12
2018-05-21T05:24:16.822Z,21.15
2018-05-21T05:24:48.057Z,21.18
2018-05-21T05:25:19.277Z,21.21
2018-05-21T05:25:50.502Z,21.25
2018-05-21T05:26:21.729Z,21.26
2018-05-21T05:26:52.943Z,21.26
2018-05-21T05:27:24.168Z,21.26
2018-05-21T05:27:55.396Z,21.26
2018-05-21T05:28:26.657Z,21.27
2018-05-21T05:28:57.862Z,21.28
2018-05-21T05:29:29.098Z,21.25
2018-05-21T05:30:00.325Z,21.25
2018-05-21T05:30:31.563Z,21.25
2018-05-21T05:31:02.763Z,21.24
2018-05-21T05:31:33.973Z,21.23
2018-05-21T05:32:05.217Z,21.23
2018-05-21T05:32:36.436Z,21.24
2018-05-21T05:33:07.658Z,21.22
2018-05-21T05:33:38.929Z,21.24
2018-05-21T05:34:10.150Z,21.26
2018-05-21T05:34:41.364Z,21.21
2018-05-21T05:35:12.599Z,21.15
2018-05-21T05:35:43.825Z,21.09
2018-05-21T05:36:15.073Z,21.07
2018-05-21T05:36:46.297Z,21.00
2018-05-21T05:37:17.572Z,20.95
2018-05-21T05:37:48.793Z,20.98
2018-05-21T05:38:20.014Z,21.03
2018-05-21T05:38:51.231Z,21.04
2018-05-21T05:39:22.467Z,21.04
2018-05-21T05:39:53.719Z,21.06
2018-05-21T05:40:24.962Z,21.08
2018-05-21T05:40:56.218Z,21.10
2018-05-21T05:41:27.447Z,21.07
2018-05-21T05:41:58.742Z,21.11
2018-05-21T05:42:29.932Z,21.12
2018-05-21T05:43:01.169Z,21.15
2018-05-21T05:43:32.412Z,21.17
2018-05-21T05:44:03.634Z,21.20
2018-05-21T05:44:34.920Z,21.19
2018-05-21T05:45:06.141Z,21.22
2018-05-21T05:45:37.349Z,21.24
2018-05-21T05:46:08.573Z,21.26
2018-05-21T05:46:39.826Z,21.26
2018-05-21T05:47:11.046Z,21.29
2018-05-21T05:47:42.281Z,21.26
2018-05-21T05:48:13.492Z,21.24
2018-05-21T05:48:44.779Z,21.21
2018-05-21T05:49:15.976Z,21.22
2018-05-21T05:49:47.237Z,21.21
2018-05-21T05:50:18.509Z,21.18
2018-05-21T05:50:49.738Z,21.16
2018-05-21T05:51:20.995Z,21.13
2018-05-21T05:51:52.237Z,21.10
2018-05-21T05:52:23.465Z,21.10
2018-05-21T05:52:54.707Z,21.08
2018-05-21T05:53:25.913Z,21.07
2018-05-21T05:53:57.142Z,21.07
2018-05-21T05:54:28.366Z,21.07
2018-05-21T05:54:59.601Z,21.08
2018-05-21T05:55:30.819Z,21.09
2018-05-21T05:56:02.033Z,21.12
2018-05-21T05:56:33.307Z,21.14
2018-05-21T05:57:04.976Z,21.19
2018-05-21T05:57:36.314Z,21.21
2018-05-21T05:58:07.576Z,21.22
2018-05-21T05:58:38.827Z,21.20
2018-05-21T05:59:10.108Z,21.19
2018-05-21T05:59:41.448Z,21.18
2018-05-21T06:00:12.688Z,21.20
2018-05-21T06:00:43.908Z,21.23
2018-05-21T06:01:15.964Z,21.25
2018-05-21T06:01:47.264Z,21.26
2018-05-21T06:02:18.594Z,21.27
2018-05-21T06:02:49.956Z,21.28
2018-05-21T06:03:24.775Z,21.30
2018-05-21T06:03:56.044Z,21.32
2018-05-21T06:04:27.290Z,21.32
2018-05-21T06:04:58.589Z,21.33
2018-05-21T06:05:29.848Z,21.35
2018-05-21T06:06:01.133Z,21.32
2018-05-21T06:06:32.385Z,21.32
2018-05-21T06:07:03.669Z,21.33
2018-05-21T06:07:34.900Z,21.37
2018-05-21T06:08:06.225Z,21.40
2018-05-21T06:08:37.626Z,21.44
2018-05-21T06:09:08.912Z,21.46
2018-05-21T06:09:41.429Z,21.49
2018-05-21T06:10:12.866Z,21.50
2018-05-21T06:10:44.085Z,21.52
2018-05-21T06:11:15.916Z,21.57
2018-05-21T06:11:47.146Z,21.62
2018-05-21T06:12:18.452Z,21.62
2018-05-21T06:12:49.688Z,21.59
2018-05-21T06:13:20.918Z,21.49
2018-05-21T06:13:52.164Z,21.45
2018-05-21T06:14:23.416Z,21.43
2018-05-21T06:14:54.653Z,21.46
2018-05-21T06:15:25.885Z,21.44
2018-05-21T06:15:57.127Z,21.46
2018-05-21T06:16:28.359Z,21.47
2018-05-21T06:16:59.595Z,21.49
2018-05-21T06:17:30.881Z,21.51
2018-05-21T06:18:02.146Z,21.57
2018-05-21T06:18:33.432Z,21.61
2018-05-21T06:19:04.719Z,21.58
2018-05-21T06:19:39.526Z,21.49
2018-05-21T06:20:10.888Z,21.46
2018-05-21T06:20:42.201Z,21.48
2018-05-21T06:21:13.501Z,21.51
2018-05-21T06:21:44.776Z,21.55
2018-05-21T06:22:16.081Z,21.61
2018-05-21T06:22:47.358Z,21.67
2018-05-21T06:23:18.596Z,21.70
2018-05-21T06:23:49.795Z,21.75
2018-05-21T06:24:21.085Z,21.80
2018-05-21T06:24:52.422Z,21.84
2018-05-21T06:25:24.192Z,21.90
2018-05-21T06:25:55.518Z,21.96
2018-05-21T06:26:26.751Z,21.99
2018-05-21T06:26:58.017Z,21.93
2018-05-21T06:27:29.236Z,21.89
2018-05-21T06:28:00.458Z,21.86
2018-05-21T06:28:31.709Z,21.86
2018-05-21T06:29:02.934Z,21.88
2018-05-21T06:29:34.161Z,21.92
2018-05-21T06:30:05.414Z,21.90
2018-05-21T06:30:36.647Z,21.86
2018-05-21T06:31:07.870Z,21.83
2018-05-21T06:31:39.094Z,21.81
2018-05-21T06:32:10.337Z,21.84
2018-05-21T06:32:41.576Z,21.80
2018-05-21T06:33:12.775Z,21.80
2018-05-21T06:33:43.991Z,21.82
2018-05-21T06:34:15.212Z,21.85
2018-05-21T06:34:46.538Z,21.85
2018-05-21T06:35:17.825Z,21.77
2018-05-21T06:35:49.062Z,21.69
2018-05-21T06:36:20.277Z,21.80
2018-05-21T06:36:51.488Z,21.83
2018-05-21T06:37:22.721Z,21.91
2018-05-21T06:37:53.934Z,21.96
2018-05-21T06:38:25.177Z,22.01
2018-05-21T06:38:56.393Z,22.04
2018-05-21T06:39:27.610Z,22.12
2018-05-21T06:39:58.858Z,22.11
2018-05-21T06:40:30.117Z,22.05
2018-05-21T06:41:01.395Z,22.00
2018-05-21T06:41:32.643Z,21.98
2018-05-21T06:42:03.869Z,22.07
2018-05-21T06:42:35.128Z,22.06
2018-05-21T06:43:06.364Z,22.10
2018-05-21T06:43:37.588Z,22.14
2018-05-21T06:44:08.829Z,22.20